Observations de surface / UK / EGNC

Québec | Canada | États-Unis | France | UK | Europe | Ailleurs

Affichage: Infos & localisation pour EGNC | Aide pour décoder les METARs

EGNC CARLISLE -- UK
Raw surface observations for station EGNC
EGNC 201750Z 06002KT 9999 BKN010 04/03 Q1033=
EGNC 201720Z 07002KT 9999 BKN010 05/03 Q1033=